sensor_id;sensor_type;location;lat;lon;timestamp;P1;P2;P0
73241;PMS5003;65659;49.234;-2.094;2023-02-11T00:02:08;2;2;
73241;PMS5003;65659;49.234;-2.094;2023-02-11T00:04:33;2;2;
73241;PMS5003;65659;49.234;-2.094;2023-02-11T00:06:59;1;1;
73241;PMS5003;65659;49.234;-2.094;2023-02-11T00:09:25;2;2;
73241;PMS5003;65659;49.234;-2.094;2023-02-11T00:11:50;2;2;
73241;PMS5003;65659;49.234;-2.094;2023-02-11T00:14:16;2;1;
73241;PMS5003;65659;49.234;-2.094;2023-02-11T00:16:42;1;1;
73241;PMS5003;65659;49.234;-2.094;2023-02-11T00:19:08;2;2;
73241;PMS5003;65659;49.234;-2.094;2023-02-11T00:21:34;1;1;
73241;PMS5003;65659;49.234;-2.094;2023-02-11T00:23:59;1;1;
73241;PMS5003;65659;49.234;-2.094;2023-02-11T00:26:26;0;0;
73241;PMS5003;65659;49.234;-2.094;2023-02-11T00:28:51;2;2;
73241;PMS5003;65659;49.234;-2.094;2023-02-11T00:31:17;1;1;
73241;PMS5003;65659;49.234;-2.094;2023-02-11T00:33:43;1;1;
73241;PMS5003;65659;49.234;-2.094;2023-02-11T00:36:09;0;0;
73241;PMS5003;65659;49.234;-2.094;2023-02-11T00:38:34;0;0;
73241;PMS5003;65659;49.234;-2.094;2023-02-11T00:40:59;0;0;
73241;PMS5003;65659;49.234;-2.094;2023-02-11T00:43:25;0;0;
73241;PMS5003;65659;49.234;-2.094;2023-02-11T00:45:51;1;1;
73241;PMS5003;65659;49.234;-2.094;2023-02-11T00:48:17;0;0;
73241;PMS5003;65659;49.234;-2.094;2023-02-11T00:50:43;1;1;
73241;PMS5003;65659;49.234;-2.094;2023-02-11T00:53:08;1;1;
73241;PMS5003;65659;49.234;-2.094;2023-02-11T00:55:34;1;1;
73241;PMS5003;65659;49.234;-2.094;2023-02-11T00:58:00;1;1;
73241;PMS5003;65659;49.234;-2.094;2023-02-11T01:00:25;1;1;
73241;PMS5003;65659;49.234;-2.094;2023-02-11T01:02:51;0;0;
73241;PMS5003;65659;49.234;-2.094;2023-02-11T01:05:17;1;1;
73241;PMS5003;65659;49.234;-2.094;2023-02-11T01:07:43;1;1;
73241;PMS5003;65659;49.234;-2.094;2023-02-11T01:10:08;0;0;
73241;PMS5003;65659;49.234;-2.094;2023-02-11T01:12:34;1;1;
73241;PMS5003;65659;49.234;-2.094;2023-02-11T01:15:00;2;2;
73241;PMS5003;65659;49.234;-2.094;2023-02-11T01:17:25;2;2;
73241;PMS5003;65659;49.234;-2.094;2023-02-11T01:19:51;1;1;
73241;PMS5003;65659;49.234;-2.094;2023-02-11T01:22:17;1;1;
73241;PMS5003;65659;49.234;-2.094;2023-02-11T01:24:43;1;1;
73241;PMS5003;65659;49.234;-2.094;2023-02-11T01:27:08;2;2;
73241;PMS5003;65659;49.234;-2.094;2023-02-11T01:29:34;0;0;
73241;PMS5003;65659;49.234;-2.094;2023-02-11T01:32:00;1;1;
73241;PMS5003;65659;49.234;-2.094;2023-02-11T01:34:26;1;1;
73241;PMS5003;65659;49.234;-2.094;2023-02-11T01:36:55;1;1;
73241;PMS5003;65659;49.234;-2.094;2023-02-11T01:39:17;1;1;
73241;PMS5003;65659;49.234;-2.094;2023-02-11T01:41:43;0;0;
73241;PMS5003;65659;49.234;-2.094;2023-02-11T01:46:34;0;0;
73241;PMS5003;65659;49.234;-2.094;2023-02-11T01:49:02;2;1;
73241;PMS5003;65659;49.234;-2.094;2023-02-11T01:51:27;1;1;
73241;PMS5003;65659;49.234;-2.094;2023-02-11T01:53:51;1;1;
73241;PMS5003;65659;49.234;-2.094;2023-02-11T01:56:17;1;1;
73241;PMS5003;65659;49.234;-2.094;2023-02-11T01:58:43;0;0;
73241;PMS5003;65659;49.234;-2.094;2023-02-11T02:01:08;1;1;
73241;PMS5003;65659;49.234;-2.094;2023-02-11T02:03:35;2;2;
73241;PMS5003;65659;49.234;-2.094;2023-02-11T02:06:01;1;1;
73241;PMS5003;65659;49.234;-2.094;2023-02-11T02:08:27;1;1;
73241;PMS5003;65659;49.234;-2.094;2023-02-11T02:10:52;2;1;
73241;PMS5003;65659;49.234;-2.094;2023-02-11T02:13:17;1;1;
73241;PMS5003;65659;49.234;-2.094;2023-02-11T02:15:44;1;1;
73241;PMS5003;65659;49.234;-2.094;2023-02-11T02:18:13;2;2;
73241;PMS5003;65659;49.234;-2.094;2023-02-11T02:20:47;1;1;
73241;PMS5003;65659;49.234;-2.094;2023-02-11T02:23:10;2;2;
73241;PMS5003;65659;49.234;-2.094;2023-02-11T02:25:31;2;2;
73241;PMS5003;65659;49.234;-2.094;2023-02-11T02:27:52;2;2;
73241;PMS5003;65659;49.234;-2.094;2023-02-11T02:32:46;1;1;
73241;PMS5003;65659;49.234;-2.094;2023-02-11T02:35:11;0;0;
73241;PMS5003;65659;49.234;-2.094;2023-02-11T02:37:35;1;1;
73241;PMS5003;65659;49.234;-2.094;2023-02-11T02:40:02;0;0;
73241;PMS5003;65659;49.234;-2.094;2023-02-11T02:42:26;2;2;
73241;PMS5003;65659;49.234;-2.094;2023-02-11T02:44:52;2;2;
73241;PMS5003;65659;49.234;-2.094;2023-02-11T02:47:18;1;1;
73241;PMS5003;65659;49.234;-2.094;2023-02-11T02:49:43;1;1;
73241;PMS5003;65659;49.234;-2.094;2023-02-11T02:52:12;1;1;
73241;PMS5003;65659;49.234;-2.094;2023-02-11T02:54:39;0;0;
73241;PMS5003;65659;49.234;-2.094;2023-02-11T02:57:02;1;1;
73241;PMS5003;65659;49.234;-2.094;2023-02-11T02:59:32;2;2;
73241;PMS5003;65659;49.234;-2.094;2023-02-11T03:01:54;0;0;
73241;PMS5003;65659;49.234;-2.094;2023-02-11T03:04:20;1;1;
73241;PMS5003;65659;49.234;-2.094;2023-02-11T03:06:45;1;1;
73241;PMS5003;65659;49.234;-2.094;2023-02-11T03:09:11;1;1;
73241;PMS5003;65659;49.234;-2.094;2023-02-11T03:11:35;3;3;
73241;PMS5003;65659;49.234;-2.094;2023-02-11T03:14:01;0;0;
73241;PMS5003;65659;49.234;-2.094;2023-02-11T03:16:26;1;1;
73241;PMS5003;65659;49.234;-2.094;2023-02-11T03:18:53;1;1;
73241;PMS5003;65659;49.234;-2.094;2023-02-11T03:21:18;0;0;
73241;PMS5003;65659;49.234;-2.094;2023-02-11T03:23:46;1;1;
73241;PMS5003;65659;49.234;-2.094;2023-02-11T03:26:10;0;0;
73241;PMS5003;65659;49.234;-2.094;2023-02-11T03:28:36;2;2;
73241;PMS5003;65659;49.234;-2.094;2023-02-11T03:31:04;1;1;
73241;PMS5003;65659;49.234;-2.094;2023-02-11T03:33:27;1;1;
73241;PMS5003;65659;49.234;-2.094;2023-02-11T03:35:53;1;1;
73241;PMS5003;65659;49.234;-2.094;2023-02-11T03:38:18;1;1;
73241;PMS5003;65659;49.234;-2.094;2023-02-11T03:40:43;1;1;
73241;PMS5003;65659;49.234;-2.094;2023-02-11T03:43:10;0;0;
73241;PMS5003;65659;49.234;-2.094;2023-02-11T03:45:35;1;1;
73241;PMS5003;65659;49.234;-2.094;2023-02-11T03:48:01;1;1;
73241;PMS5003;65659;49.234;-2.094;2023-02-11T03:50:26;1;1;
73241;PMS5003;65659;49.234;-2.094;2023-02-11T03:52:52;1;1;
73241;PMS5003;65659;49.234;-2.094;2023-02-11T03:55:18;1;1;
73241;PMS5003;65659;49.234;-2.094;2023-02-11T03:57:44;1;1;
73241;PMS5003;65659;49.234;-2.094;2023-02-11T04:00:10;1;1;
73241;PMS5003;65659;49.234;-2.094;2023-02-11T04:02:35;1;1;
73241;PMS5003;65659;49.234;-2.094;2023-02-11T04:05:01;2;2;
73241;PMS5003;65659;49.234;-2.094;2023-02-11T04:07:27;1;1;
73241;PMS5003;65659;49.234;-2.094;2023-02-11T04:09:52;1;1;
73241;PMS5003;65659;49.234;-2.094;2023-02-11T04:12:18;1;1;
73241;PMS5003;65659;49.234;-2.094;2023-02-11T04:14:44;1;1;
73241;PMS5003;65659;49.234;-2.094;2023-02-11T04:17:09;2;2;
73241;PMS5003;65659;49.234;-2.094;2023-02-11T04:19:35;1;1;
73241;PMS5003;65659;49.234;-2.094;2023-02-11T04:22:01;1;1;
73241;PMS5003;65659;49.234;-2.094;2023-02-11T04:24:27;1;1;
73241;PMS5003;65659;49.234;-2.094;2023-02-11T04:26:52;2;2;
73241;PMS5003;65659;49.234;-2.094;2023-02-11T04:29:18;0;0;
73241;PMS5003;65659;49.234;-2.094;2023-02-11T04:31:44;1;1;
73241;PMS5003;65659;49.234;-2.094;2023-02-11T04:34:09;2;2;
73241;PMS5003;65659;49.234;-2.094;2023-02-11T04:36:35;1;1;
73241;PMS5003;65659;49.234;-2.094;2023-02-11T04:39:01;2;2;
73241;PMS5003;65659;49.234;-2.094;2023-02-11T04:41:27;1;1;
73241;PMS5003;65659;49.234;-2.094;2023-02-11T04:43:53;1;1;
73241;PMS5003;65659;49.234;-2.094;2023-02-11T04:46:18;1;1;
73241;PMS5003;65659;49.234;-2.094;2023-02-11T04:48:44;1;1;
73241;PMS5003;65659;49.234;-2.094;2023-02-11T04:51:10;1;1;
73241;PMS5003;65659;49.234;-2.094;2023-02-11T04:53:35;1;1;
73241;PMS5003;65659;49.234;-2.094;2023-02-11T04:56:01;1;1;
73241;PMS5003;65659;49.234;-2.094;2023-02-11T04:58:27;1;0;
73241;PMS5003;65659;49.234;-2.094;2023-02-11T05:00:53;0;0;
73241;PMS5003;65659;49.234;-2.094;2023-02-11T05:03:18;0;0;
73241;PMS5003;65659;49.234;-2.094;2023-02-11T05:05:44;0;0;
73241;PMS5003;65659;49.234;-2.094;2023-02-11T05:08:11;0;0;
73241;PMS5003;65659;49.234;-2.094;2023-02-11T05:10:36;0;0;
73241;PMS5003;65659;49.234;-2.094;2023-02-11T05:13:01;1;1;
73241;PMS5003;65659;49.234;-2.094;2023-02-11T05:15:27;1;1;
73241;PMS5003;65659;49.234;-2.094;2023-02-11T05:17:53;1;1;
73241;PMS5003;65659;49.234;-2.094;2023-02-11T05:20:18;0;0;
73241;PMS5003;65659;49.234;-2.094;2023-02-11T05:22:44;0;0;
73241;PMS5003;65659;49.234;-2.094;2023-02-11T05:25:10;0;0;
73241;PMS5003;65659;49.234;-2.094;2023-02-11T05:27:36;0;0;
73241;PMS5003;65659;49.234;-2.094;2023-02-11T05:30:01;0;0;
73241;PMS5003;65659;49.234;-2.094;2023-02-11T05:32:27;1;1;
73241;PMS5003;65659;49.234;-2.094;2023-02-11T05:34:53;0;0;
73241;PMS5003;65659;49.234;-2.094;2023-02-11T05:37:18;1;1;
73241;PMS5003;65659;49.234;-2.094;2023-02-11T05:39:44;0;0;
73241;PMS5003;65659;49.234;-2.094;2023-02-11T05:42:10;1;1;
73241;PMS5003;65659;49.234;-2.094;2023-02-11T05:44:36;1;1;
73241;PMS5003;65659;49.234;-2.094;2023-02-11T05:47:01;1;1;
73241;PMS5003;65659;49.234;-2.094;2023-02-11T05:49:28;1;1;
73241;PMS5003;65659;49.234;-2.094;2023-02-11T05:51:53;1;1;
73241;PMS5003;65659;49.234;-2.094;2023-02-11T05:54:18;1;1;
73241;PMS5003;65659;49.234;-2.094;2023-02-11T05:56:44;0;0;
73241;PMS5003;65659;49.234;-2.094;2023-02-11T05:59:11;0;0;
73241;PMS5003;65659;49.234;-2.094;2023-02-11T06:01:36;2;1;
73241;PMS5003;65659;49.234;-2.094;2023-02-11T06:04:01;0;0;
73241;PMS5003;65659;49.234;-2.094;2023-02-11T06:06:27;1;1;
73241;PMS5003;65659;49.234;-2.094;2023-02-11T06:08:53;0;0;
73241;PMS5003;65659;49.234;-2.094;2023-02-11T06:11:19;1;1;
73241;PMS5003;65659;49.234;-2.094;2023-02-11T06:13:44;0;0;
73241;PMS5003;65659;49.234;-2.094;2023-02-11T06:16:10;0;0;
73241;PMS5003;65659;49.234;-2.094;2023-02-11T06:18:36;1;1;
73241;PMS5003;65659;49.234;-2.094;2023-02-11T06:21:05;1;1;
73241;PMS5003;65659;49.234;-2.094;2023-02-11T06:23:27;1;1;
73241;PMS5003;65659;49.234;-2.094;2023-02-11T06:25:53;0;0;
73241;PMS5003;65659;49.234;-2.094;2023-02-11T06:28:19;0;0;
73241;PMS5003;65659;49.234;-2.094;2023-02-11T06:30:45;1;1;
73241;PMS5003;65659;49.234;-2.094;2023-02-11T06:33:10;0;0;
73241;PMS5003;65659;49.234;-2.094;2023-02-11T06:35:37;0;0;
73241;PMS5003;65659;49.234;-2.094;2023-02-11T06:38:02;0;0;
73241;PMS5003;65659;49.234;-2.094;2023-02-11T06:40:28;1;1;
73241;PMS5003;65659;49.234;-2.094;2023-02-11T06:42:53;1;1;
73241;PMS5003;65659;49.234;-2.094;2023-02-11T06:45:19;0;0;
73241;PMS5003;65659;49.234;-2.094;2023-02-11T06:47:45;1;0;
73241;PMS5003;65659;49.234;-2.094;2023-02-11T06:50:11;0;0;
73241;PMS5003;65659;49.234;-2.094;2023-02-11T06:52:36;0;0;
73241;PMS5003;65659;49.234;-2.094;2023-02-11T06:55:02;1;1;
73241;PMS5003;65659;49.234;-2.094;2023-02-11T06:57:29;1;1;
73241;PMS5003;65659;49.234;-2.094;2023-02-11T06:59:53;0;0;
73241;PMS5003;65659;49.234;-2.094;2023-02-11T07:02:19;0;0;
73241;PMS5003;65659;49.234;-2.094;2023-02-11T07:04:45;0;0;
73241;PMS5003;65659;49.234;-2.094;2023-02-11T07:07:10;1;1;
73241;PMS5003;65659;49.234;-2.094;2023-02-11T07:09:36;1;1;
73241;PMS5003;65659;49.234;-2.094;2023-02-11T07:12:02;1;1;
73241;PMS5003;65659;49.234;-2.094;2023-02-11T07:14:29;0;0;
73241;PMS5003;65659;49.234;-2.094;2023-02-11T07:16:53;0;0;
73241;PMS5003;65659;49.234;-2.094;2023-02-11T07:19:19;1;1;
73241;PMS5003;65659;49.234;-2.094;2023-02-11T07:21:45;0;0;
73241;PMS5003;65659;49.234;-2.094;2023-02-11T07:24:11;0;0;
73241;PMS5003;65659;49.234;-2.094;2023-02-11T07:26:36;0;0;
73241;PMS5003;65659;49.234;-2.094;2023-02-11T07:29:02;0;0;
73241;PMS5003;65659;49.234;-2.094;2023-02-11T07:31:29;0;0;
73241;PMS5003;65659;49.234;-2.094;2023-02-11T07:33:54;0;0;
73241;PMS5003;65659;49.234;-2.094;2023-02-11T07:36:19;0;0;
73241;PMS5003;65659;49.234;-2.094;2023-02-11T07:38:45;0;0;
73241;PMS5003;65659;49.234;-2.094;2023-02-11T07:41:12;0;0;
73241;PMS5003;65659;49.234;-2.094;2023-02-11T07:43:37;1;1;
73241;PMS5003;65659;49.234;-2.094;2023-02-11T07:46:02;0;0;
73241;PMS5003;65659;49.234;-2.094;2023-02-11T07:48:28;1;1;
73241;PMS5003;65659;49.234;-2.094;2023-02-11T07:50:54;1;1;
73241;PMS5003;65659;49.234;-2.094;2023-02-11T07:53:19;0;0;
73241;PMS5003;65659;49.234;-2.094;2023-02-11T07:55:45;0;0;
73241;PMS5003;65659;49.234;-2.094;2023-02-11T07:58:11;1;1;
73241;PMS5003;65659;49.234;-2.094;2023-02-11T08:00:37;0;0;
73241;PMS5003;65659;49.234;-2.094;2023-02-11T08:03:02;1;0;
73241;PMS5003;65659;49.234;-2.094;2023-02-11T08:05:28;0;0;
73241;PMS5003;65659;49.234;-2.094;2023-02-11T08:07:54;0;0;
73241;PMS5003;65659;49.234;-2.094;2023-02-11T08:10:20;1;1;
73241;PMS5003;65659;49.234;-2.094;2023-02-11T08:12:45;2;2;
73241;PMS5003;65659;49.234;-2.094;2023-02-11T08:15:11;0;0;
73241;PMS5003;65659;49.234;-2.094;2023-02-11T08:17:37;1;1;
73241;PMS5003;65659;49.234;-2.094;2023-02-11T08:20:03;0;0;
73241;PMS5003;65659;49.234;-2.094;2023-02-11T08:22:30;1;1;
73241;PMS5003;65659;49.234;-2.094;2023-02-11T08:24:54;1;1;
73241;PMS5003;65659;49.234;-2.094;2023-02-11T08:27:20;0;0;
73241;PMS5003;65659;49.234;-2.094;2023-02-11T08:29:45;1;1;
73241;PMS5003;65659;49.234;-2.094;2023-02-11T08:32:11;1;1;
73241;PMS5003;65659;49.234;-2.094;2023-02-11T08:34:37;0;0;
73241;PMS5003;65659;49.234;-2.094;2023-02-11T08:37:03;0;0;
73241;PMS5003;65659;49.234;-2.094;2023-02-11T08:39:28;0;0;
73241;PMS5003;65659;49.234;-2.094;2023-02-11T08:41:54;0;0;
73241;PMS5003;65659;49.234;-2.094;2023-02-11T08:44:20;0;0;
73241;PMS5003;65659;49.234;-2.094;2023-02-11T08:46:46;0;0;
73241;PMS5003;65659;49.234;-2.094;2023-02-11T08:49:11;0;0;
73241;PMS5003;65659;49.234;-2.094;2023-02-11T08:51:37;1;1;
73241;PMS5003;65659;49.234;-2.094;2023-02-11T08:54:03;0;0;
73241;PMS5003;65659;49.234;-2.094;2023-02-11T08:56:28;1;0;
73241;PMS5003;65659;49.234;-2.094;2023-02-11T08:58:54;1;1;
73241;PMS5003;65659;49.234;-2.094;2023-02-11T09:01:20;0;0;
73241;PMS5003;65659;49.234;-2.094;2023-02-11T09:03:46;1;1;
73241;PMS5003;65659;49.234;-2.094;2023-02-11T09:06:11;0;0;
73241;PMS5003;65659;49.234;-2.094;2023-02-11T09:08:38;1;1;
73241;PMS5003;65659;49.234;-2.094;2023-02-11T09:11:03;0;0;
73241;PMS5003;65659;49.234;-2.094;2023-02-11T09:13:29;1;1;
73241;PMS5003;65659;49.234;-2.094;2023-02-11T09:15:54;1;1;
73241;PMS5003;65659;49.234;-2.094;2023-02-11T09:18:20;0;0;
73241;PMS5003;65659;49.234;-2.094;2023-02-11T09:20:46;1;1;
73241;PMS5003;65659;49.234;-2.094;2023-02-11T09:23:11;1;1;
73241;PMS5003;65659;49.234;-2.094;2023-02-11T09:25:37;0;0;
73241;PMS5003;65659;49.234;-2.094;2023-02-11T09:28:03;0;0;
73241;PMS5003;65659;49.234;-2.094;2023-02-11T09:30:29;0;0;
73241;PMS5003;65659;49.234;-2.094;2023-02-11T09:32:54;0;0;
73241;PMS5003;65659;49.234;-2.094;2023-02-11T09:35:20;1;1;
73241;PMS5003;65659;49.234;-2.094;2023-02-11T09:37:46;1;1;
73241;PMS5003;65659;49.234;-2.094;2023-02-11T09:40:12;0;0;
73241;PMS5003;65659;49.234;-2.094;2023-02-11T09:42:40;1;1;
73241;PMS5003;65659;49.234;-2.094;2023-02-11T09:45:05;0;0;
73241;PMS5003;65659;49.234;-2.094;2023-02-11T09:47:29;1;0;
73241;PMS5003;65659;49.234;-2.094;2023-02-11T09:49:57;1;1;
73241;PMS5003;65659;49.234;-2.094;2023-02-11T09:52:23;1;1;
73241;PMS5003;65659;49.234;-2.094;2023-02-11T09:54:49;1;1;
73241;PMS5003;65659;49.234;-2.094;2023-02-11T09:57:12;0;0;
73241;PMS5003;65659;49.234;-2.094;2023-02-11T09:59:38;0;0;
73241;PMS5003;65659;49.234;-2.094;2023-02-11T10:02:04;0;0;
73241;PMS5003;65659;49.234;-2.094;2023-02-11T10:04:34;1;1;
73241;PMS5003;65659;49.234;-2.094;2023-02-11T10:06:55;1;1;
73241;PMS5003;65659;49.234;-2.094;2023-02-11T10:09:24;0;0;
73241;PMS5003;65659;49.234;-2.094;2023-02-11T10:11:48;0;0;
73241;PMS5003;65659;49.234;-2.094;2023-02-11T10:14:17;0;0;
73241;PMS5003;65659;49.234;-2.094;2023-02-11T10:16:42;0;0;
73241;PMS5003;65659;49.234;-2.094;2023-02-11T10:19:08;1;1;
73241;PMS5003;65659;49.234;-2.094;2023-02-11T10:21:31;1;1;
73241;PMS5003;65659;49.234;-2.094;2023-02-11T10:23:55;1;1;
73241;PMS5003;65659;49.234;-2.094;2023-02-11T10:26:20;1;1;
73241;PMS5003;65659;49.234;-2.094;2023-02-11T10:28:47;2;1;
73241;PMS5003;65659;49.234;-2.094;2023-02-11T10:31:12;0;0;
73241;PMS5003;65659;49.234;-2.094;2023-02-11T10:33:39;2;1;
73241;PMS5003;65659;49.234;-2.094;2023-02-11T10:36:03;0;0;
73241;PMS5003;65659;49.234;-2.094;2023-02-11T10:38:29;1;1;
73241;PMS5003;65659;49.234;-2.094;2023-02-11T10:40:55;0;0;
73241;PMS5003;65659;49.234;-2.094;2023-02-11T10:43:22;1;1;
73241;PMS5003;65659;49.234;-2.094;2023-02-11T10:45:48;0;0;
73241;PMS5003;65659;49.234;-2.094;2023-02-11T10:50:38;1;1;
73241;PMS5003;65659;49.234;-2.094;2023-02-11T10:53:14;2;2;
73241;PMS5003;65659;49.234;-2.094;2023-02-11T10:55:29;3;3;
73241;PMS5003;65659;49.234;-2.094;2023-02-11T10:57:57;1;1;
73241;PMS5003;65659;49.234;-2.094;2023-02-11T11:02:51;3;3;
73241;PMS5003;65659;49.234;-2.094;2023-02-11T11:05:14;0;0;
73241;PMS5003;65659;49.234;-2.094;2023-02-11T11:07:37;2;2;
73241;PMS5003;65659;49.234;-2.094;2023-02-11T11:10:04;0;0;
73241;PMS5003;65659;49.234;-2.094;2023-02-11T11:12:31;2;2;
73241;PMS5003;65659;49.234;-2.094;2023-02-11T11:14:55;2;2;
73241;PMS5003;65659;49.234;-2.094;2023-02-11T11:17:20;2;2;
73241;PMS5003;65659;49.234;-2.094;2023-02-11T11:19:46;1;1;
73241;PMS5003;65659;49.234;-2.094;2023-02-11T11:24:38;2;2;
73241;PMS5003;65659;49.234;-2.094;2023-02-11T11:27:03;1;1;
73241;PMS5003;65659;49.234;-2.094;2023-02-11T11:29:32;1;1;
73241;PMS5003;65659;49.234;-2.094;2023-02-11T11:31:55;2;2;
73241;PMS5003;65659;49.234;-2.094;2023-02-11T11:34:22;2;1;
73241;PMS5003;65659;49.234;-2.094;2023-02-11T11:36:46;5;5;
73241;PMS5003;65659;49.234;-2.094;2023-02-11T11:39:16;3;3;
73241;PMS5003;65659;49.234;-2.094;2023-02-11T11:41:38;6;6;
73241;PMS5003;65659;49.234;-2.094;2023-02-11T11:44:17;4;4;
73241;PMS5003;65659;49.234;-2.094;2023-02-11T11:46:33;5;5;
73241;PMS5003;65659;49.234;-2.094;2023-02-11T11:48:57;4;4;
73241;PMS5003;65659;49.234;-2.094;2023-02-11T11:51:21;3;3;
73241;PMS5003;65659;49.234;-2.094;2023-02-11T11:53:49;5;4;
73241;PMS5003;65659;49.234;-2.094;2023-02-11T11:56:13;7;7;
73241;PMS5003;65659;49.234;-2.094;2023-02-11T11:58:38;3;3;
73241;PMS5003;65659;49.234;-2.094;2023-02-11T12:01:08;4;4;
73241;PMS5003;65659;49.234;-2.094;2023-02-11T12:03:34;4;3;
73241;PMS5003;65659;49.234;-2.094;2023-02-11T12:06:00;4;4;
73241;PMS5003;65659;49.234;-2.094;2023-02-11T12:08:22;3;3;
73241;PMS5003;65659;49.234;-2.094;2023-02-11T12:10:50;3;3;
73241;PMS5003;65659;49.234;-2.094;2023-02-11T12:13:16;3;3;
73241;PMS5003;65659;49.234;-2.094;2023-02-11T12:15:40;3;3;
73241;PMS5003;65659;49.234;-2.094;2023-02-11T12:18:08;3;3;
73241;PMS5003;65659;49.234;-2.094;2023-02-11T12:20:31;3;3;
73241;PMS5003;65659;49.234;-2.094;2023-02-11T12:22:59;3;3;
73241;PMS5003;65659;49.234;-2.094;2023-02-11T12:25:24;3;3;
73241;PMS5003;65659;49.234;-2.094;2023-02-11T12:27:49;3;3;
73241;PMS5003;65659;49.234;-2.094;2023-02-11T12:30:17;5;5;
73241;PMS5003;65659;49.234;-2.094;2023-02-11T12:32:41;4;4;
73241;PMS5003;65659;49.234;-2.094;2023-02-11T12:35:07;3;3;
73241;PMS5003;65659;49.234;-2.094;2023-02-11T12:37:34;3;3;
73241;PMS5003;65659;49.234;-2.094;2023-02-11T12:39:57;4;4;
73241;PMS5003;65659;49.234;-2.094;2023-02-11T12:44:51;3;3;
73241;PMS5003;65659;49.234;-2.094;2023-02-11T12:47:15;4;4;
73241;PMS5003;65659;49.234;-2.094;2023-02-11T12:49:44;3;3;
73241;PMS5003;65659;49.234;-2.094;2023-02-11T12:52:09;3;3;
73241;PMS5003;65659;49.234;-2.094;2023-02-11T12:54:30;3;3;
73241;PMS5003;65659;49.234;-2.094;2023-02-11T12:56:57;3;3;
73241;PMS5003;65659;49.234;-2.094;2023-02-11T12:59:27;2;2;
73241;PMS5003;65659;49.234;-2.094;2023-02-11T13:01:47;4;4;
73241;PMS5003;65659;49.234;-2.094;2023-02-11T13:04:15;2;2;
73241;PMS5003;65659;49.234;-2.094;2023-02-11T13:06:39;2;2;
73241;PMS5003;65659;49.234;-2.094;2023-02-11T13:09:05;3;3;
73241;PMS5003;65659;49.234;-2.094;2023-02-11T13:11:31;1;1;
73241;PMS5003;65659;49.234;-2.094;2023-02-11T13:13:57;3;3;
73241;PMS5003;65659;49.234;-2.094;2023-02-11T13:16:26;2;2;
73241;PMS5003;65659;49.234;-2.094;2023-02-11T13:18:49;1;1;
73241;PMS5003;65659;49.234;-2.094;2023-02-11T13:21:27;2;2;
73241;PMS5003;65659;49.234;-2.094;2023-02-11T13:23:40;1;1;
73241;PMS5003;65659;49.234;-2.094;2023-02-11T13:26:06;1;1;
73241;PMS5003;65659;49.234;-2.094;2023-02-11T13:28:35;2;2;
73241;PMS5003;65659;49.234;-2.094;2023-02-11T13:30:56;2;2;
73241;PMS5003;65659;49.234;-2.094;2023-02-11T13:33:30;1;1;
73241;PMS5003;65659;49.234;-2.094;2023-02-11T13:35:48;2;2;
73241;PMS5003;65659;49.234;-2.094;2023-02-11T13:38:17;2;2;
73241;PMS5003;65659;49.234;-2.094;2023-02-11T13:40:39;2;2;
73241;PMS5003;65659;49.234;-2.094;2023-02-11T13:43:06;2;2;
73241;PMS5003;65659;49.234;-2.094;2023-02-11T13:45:32;1;1;
73241;PMS5003;65659;49.234;-2.094;2023-02-11T13:47:56;2;2;
73241;PMS5003;65659;49.234;-2.094;2023-02-11T13:50:22;1;1;
73241;PMS5003;65659;49.234;-2.094;2023-02-11T13:52:47;1;0;
73241;PMS5003;65659;49.234;-2.094;2023-02-11T13:55:14;4;4;
73241;PMS5003;65659;49.234;-2.094;2023-02-11T13:57:39;2;2;
73241;PMS5003;65659;49.234;-2.094;2023-02-11T14:02:31;2;2;
73241;PMS5003;65659;49.234;-2.094;2023-02-11T14:05:08;3;3;
73241;PMS5003;65659;49.234;-2.094;2023-02-11T14:07:25;2;2;
73241;PMS5003;65659;49.234;-2.094;2023-02-11T14:09:48;1;1;
73241;PMS5003;65659;49.234;-2.094;2023-02-11T14:12:21;1;1;
73241;PMS5003;65659;49.234;-2.094;2023-02-11T14:19:31;2;2;
73241;PMS5003;65659;49.234;-2.094;2023-02-11T14:22:00;1;1;
73241;PMS5003;65659;49.234;-2.094;2023-02-11T14:26:48;2;2;
73241;PMS5003;65659;49.234;-2.094;2023-02-11T14:29:14;2;2;
73241;PMS5003;65659;49.234;-2.094;2023-02-11T14:31:40;1;1;
73241;PMS5003;65659;49.234;-2.094;2023-02-11T14:34:07;1;1;
73241;PMS5003;65659;49.234;-2.094;2023-02-11T14:36:37;2;2;
73241;PMS5003;65659;49.234;-2.094;2023-02-11T14:38:59;3;3;
73241;PMS5003;65659;49.234;-2.094;2023-02-11T14:41:23;3;3;
73241;PMS5003;65659;49.234;-2.094;2023-02-11T14:43:48;2;2;
73241;PMS5003;65659;49.234;-2.094;2023-02-11T14:46:14;3;3;
73241;PMS5003;65659;49.234;-2.094;2023-02-11T14:48:42;3;2;
73241;PMS5003;65659;49.234;-2.094;2023-02-11T14:51:05;3;3;
73241;PMS5003;65659;49.234;-2.094;2023-02-11T14:53:31;1;1;
73241;PMS5003;65659;49.234;-2.094;2023-02-11T14:55:56;3;3;
73241;PMS5003;65659;49.234;-2.094;2023-02-11T14:58:23;2;2;
73241;PMS5003;65659;49.234;-2.094;2023-02-11T15:00:49;2;2;
73241;PMS5003;65659;49.234;-2.094;2023-02-11T15:05:39;4;4;
73241;PMS5003;65659;49.234;-2.094;2023-02-11T15:08:05;5;5;
73241;PMS5003;65659;49.234;-2.094;2023-02-11T15:10:32;3;3;
73241;PMS5003;65659;49.234;-2.094;2023-02-11T15:12:57;3;3;
73241;PMS5003;65659;49.234;-2.094;2023-02-11T15:15:22;3;3;
73241;PMS5003;65659;49.234;-2.094;2023-02-11T15:17:48;4;4;
73241;PMS5003;65659;49.234;-2.094;2023-02-11T15:20:17;4;4;
73241;PMS5003;65659;49.234;-2.094;2023-02-11T15:22:40;2;2;
73241;PMS5003;65659;49.234;-2.094;2023-02-11T15:25:08;3;3;
73241;PMS5003;65659;49.234;-2.094;2023-02-11T15:29:57;2;2;
73241;PMS5003;65659;49.234;-2.094;2023-02-11T15:32:23;5;4;
73241;PMS5003;65659;49.234;-2.094;2023-02-11T15:34:49;3;3;
73241;PMS5003;65659;49.234;-2.094;2023-02-11T15:37:16;4;4;
73241;PMS5003;65659;49.234;-2.094;2023-02-11T15:39:40;3;3;
73241;PMS5003;65659;49.234;-2.094;2023-02-11T15:44:31;4;4;
73241;PMS5003;65659;49.234;-2.094;2023-02-11T15:46:57;2;2;
73241;PMS5003;65659;49.234;-2.094;2023-02-11T15:49:23;3;3;
73241;PMS5003;65659;49.234;-2.094;2023-02-11T15:51:48;3;3;
73241;PMS5003;65659;49.234;-2.094;2023-02-11T15:54:15;3;3;
73241;PMS5003;65659;49.234;-2.094;2023-02-11T15:56:40;3;3;
73241;PMS5003;65659;49.234;-2.094;2023-02-11T15:59:08;5;5;
73241;PMS5003;65659;49.234;-2.094;2023-02-11T16:01:31;3;3;
73241;PMS5003;65659;49.234;-2.094;2023-02-11T16:03:57;3;3;
73241;PMS5003;65659;49.234;-2.094;2023-02-11T16:06:24;4;4;
73241;PMS5003;65659;49.234;-2.094;2023-02-11T16:08:55;2;2;
73241;PMS5003;65659;49.234;-2.094;2023-02-11T16:11:21;2;2;
73241;PMS5003;65659;49.234;-2.094;2023-02-11T16:13:43;1;1;
73241;PMS5003;65659;49.234;-2.094;2023-02-11T16:18:32;2;2;
73241;PMS5003;65659;49.234;-2.094;2023-02-11T16:20:57;3;3;
73241;PMS5003;65659;49.234;-2.094;2023-02-11T16:23:23;2;2;
73241;PMS5003;65659;49.234;-2.094;2023-02-11T16:25:50;3;3;
73241;PMS5003;65659;49.234;-2.094;2023-02-11T16:28:14;3;3;
73241;PMS5003;65659;49.234;-2.094;2023-02-11T16:30:40;3;3;
73241;PMS5003;65659;49.234;-2.094;2023-02-11T16:33:07;3;3;
73241;PMS5003;65659;49.234;-2.094;2023-02-11T16:35:31;4;3;
73241;PMS5003;65659;49.234;-2.094;2023-02-11T16:37:57;2;2;
73241;PMS5003;65659;49.234;-2.094;2023-02-11T16:40:23;4;4;
73241;PMS5003;65659;49.234;-2.094;2023-02-11T16:42:49;1;1;
73241;PMS5003;65659;49.234;-2.094;2023-02-11T16:45:14;3;3;
73241;PMS5003;65659;49.234;-2.094;2023-02-11T16:47:40;2;2;
73241;PMS5003;65659;49.234;-2.094;2023-02-11T16:50:06;1;1;
73241;PMS5003;65659;49.234;-2.094;2023-02-11T16:52:32;2;2;
73241;PMS5003;65659;49.234;-2.094;2023-02-11T16:54:57;2;2;
73241;PMS5003;65659;49.234;-2.094;2023-02-11T16:57:23;2;2;